Time;durP1;ratioP1;P1;durP2;ratioP2;P2;SDS_P1;SDS_P2;PMS_P1;PMS_P2;Temp;Humidity;BMP_temperature;BMP_pressure;BME280_temperature;BME280_humidity;BME280_pressure;Samples;Min_cycle;Max_cycle;Signal;HPM_P1;HPM_P2
2022/03/01 00:00:14;;;;;;;11.50;5.77;;;2.50;94.90;;;;;;4943279;28;20034;-79
2022/03/01 00:02:41;;;;;;;13.23;6.53;;;2.50;95.00;;;;;;4975044;28;20034;-80
2022/03/01 00:05:08;;;;;;;8.67;5.30;;;2.50;95.00;;;;;;4973853;28;20465;-80
2022/03/01 00:07:34;;;;;;;13.47;7.87;;;2.50;95.20;;;;;;4943350;28;20038;-80
2022/03/01 00:10:02;;;;;;;11.07;6.17;;;2.40;95.40;;;;;;4929862;28;20046;-80
2022/03/01 00:12:31;;;;;;;10.67;6.73;;;2.40;95.60;;;;;;4971442;28;20049;-80
2022/03/01 00:14:57;;;;;;;15.03;7.83;;;2.40;95.70;;;;;;4970519;28;20038;-80
2022/03/01 00:17:24;;;;;;;12.60;6.70;;;2.50;95.80;;;;;;4954782;28;20042;-80
2022/03/01 00:19:51;;;;;;;16.13;8.37;;;2.50;95.90;;;;;;4942340;28;20498;-80
2022/03/01 00:22:17;;;;;;;11.67;6.50;;;2.50;96.10;;;;;;4959871;28;20054;-80
2022/03/01 00:24:43;;;;;;;10.63;5.73;;;2.50;96.00;;;;;;4956832;28;20042;-79
2022/03/01 00:27:10;;;;;;;11.23;6.53;;;2.50;96.00;;;;;;4942073;28;20050;-80
2022/03/01 00:29:36;;;;;;;14.17;7.33;;;2.50;96.10;;;;;;4939549;28;20391;-80
2022/03/01 00:32:03;;;;;;;11.63;6.77;;;2.50;96.20;;;;;;4922017;28;20049;-80
2022/03/01 00:34:31;;;;;;;11.07;6.40;;;2.50;96.30;;;;;;4937819;28;20050;-80
2022/03/01 00:36:58;;;;;;;13.03;7.37;;;2.40;96.40;;;;;;4954889;28;20065;-80
2022/03/01 00:39:24;;;;;;;13.50;7.80;;;2.40;96.50;;;;;;4954276;28;20497;-80
2022/03/01 00:41:51;;;;;;;11.87;6.80;;;2.40;96.60;;;;;;4966441;28;20032;-79
2022/03/01 00:44:22;;;;;;;11.67;6.67;;;2.40;96.60;;;;;;4969597;28;20049;-80
2022/03/01 00:46:53;;;;;;;10.87;6.47;;;2.40;96.60;;;;;;4941161;28;20033;-80
2022/03/01 00:49:21;;;;;;;10.83;5.33;;;2.40;96.70;;;;;;4953050;28;20514;-80
2022/03/01 00:51:49;;;;;;;10.47;6.77;;;2.30;96.70;;;;;;4948613;28;20467;-80
2022/03/01 00:54:16;;;;;;;10.00;5.90;;;2.30;96.80;;;;;;4951065;28;20026;-80
2022/03/01 00:56:42;;;;;;;8.67;4.40;;;2.30;96.90;;;;;;4970309;28;20053;-79
2022/03/01 00:59:10;;;;;;;12.93;7.30;;;2.20;97.00;;;;;;4966831;28;21105;-80
2022/03/01 01:01:39;;;;;;;14.67;8.10;;;2.10;97.20;;;;;;4955385;28;20462;-80
2022/03/01 01:04:05;;;;;;;12.90;6.27;;;2.10;97.40;;;;;;4953566;28;20050;-80
2022/03/01 01:06:32;;;;;;;9.43;5.10;;;2.10;97.50;;;;;;4918828;28;20522;-80
2022/03/01 01:08:58;;;;;;;14.13;6.73;;;2.10;97.50;;;;;;4952065;28;20042;-80
2022/03/01 01:11:25;;;;;;;15.80;6.53;;;2.10;97.90;;;;;;4951575;28;20043;-80
2022/03/01 01:13:53;;;;;;;12.83;6.40;;;2.10;97.70;;;;;;4951385;28;20038;-79
2022/03/01 01:16:20;;;;;;;11.57;6.03;;;2.10;97.70;;;;;;4920541;28;20046;-80
2022/03/01 01:18:48;;;;;;;12.77;5.73;;;2.10;97.70;;;;;;4966770;28;20925;-81
2022/03/01 01:21:16;;;;;;;8.97;5.50;;;2.10;97.80;;;;;;4940138;28;20038;-81
2022/03/01 01:23:45;;;;;;;8.33;5.27;;;2.10;97.80;;;;;;4966491;28;20486;-80
2022/03/01 01:26:16;;;;;;;11.17;6.20;;;2.10;97.90;;;;;;4922282;28;20041;-80
2022/03/01 01:28:45;;;;;;;10.77;5.27;;;2.00;97.90;;;;;;4946880;28;20047;-81
2022/03/01 01:31:11;;;;;;;10.87;6.23;;;2.00;98.10;;;;;;4955572;28;20286;-81
2022/03/01 01:33:38;;;;;;;11.63;6.33;;;2.10;98.10;;;;;;4933126;28;20051;-80
2022/03/01 01:36:04;;;;;;;12.60;7.00;;;2.00;98.10;;;;;;4942543;28;20055;-81
2022/03/01 01:38:31;;;;;;;11.57;6.87;;;2.10;98.20;;;;;;4963878;28;20030;-80
2022/03/01 01:40:57;;;;;;;12.87;6.97;;;2.10;98.30;;;;;;4950983;28;20053;-80
2022/03/01 01:43:24;;;;;;;8.60;4.63;;;2.10;98.30;;;;;;4933945;28;20050;-81
2022/03/01 01:45:50;;;;;;;10.10;5.80;;;2.10;98.30;;;;;;4934837;28;22753;-80
2022/03/01 01:48:17;;;;;;;9.93;5.57;;;2.10;98.40;;;;;;4938587;28;20043;-80
2022/03/01 01:50:43;;;;;;;11.20;5.80;;;2.10;98.50;;;;;;4951958;28;20035;-81
2022/03/01 01:53:10;;;;;;;13.27;6.67;;;2.10;98.60;;;;;;4938879;28;20034;-81
2022/03/01 01:55:37;;;;;;;10.33;4.90;;;2.10;98.70;;;;;;4951031;28;20398;-81
2022/03/01 01:58:03;;;;;;;10.33;6.03;;;2.10;98.70;;;;;;4950140;28;20034;-81
2022/03/01 02:00:30;;;;;;;12.73;6.13;;;2.10;98.80;;;;;;4941736;28;20403;-81
2022/03/01 02:02:57;;;;;;;11.40;6.07;;;2.10;98.90;;;;;;4953931;28;20018;-81
2022/03/01 02:05:23;;;;;;;8.40;4.80;;;2.10;99.00;;;;;;4934704;28;20057;-80
2022/03/01 02:07:50;;;;;;;13.00;7.07;;;2.10;99.00;;;;;;4970320;28;20026;-81
2022/03/01 02:10:17;;;;;;;9.30;5.23;;;2.10;99.10;;;;;;4947176;28;20038;-81
2022/03/01 02:12:45;;;;;;;10.60;6.10;;;2.10;99.10;;;;;;4941644;28;20471;-81
2022/03/01 02:15:12;;;;;;;10.70;5.80;;;2.10;99.10;;;;;;4938095;28;20054;-81
2022/03/01 02:17:40;;;;;;;11.77;6.50;;;2.10;99.20;;;;;;4955777;28;20474;-81
2022/03/01 02:20:12;;;;;;;10.03;5.97;;;2.10;99.20;;;;;;4962836;28;20032;-81
2022/03/01 02:22:39;;;;;;;12.75;6.10;;;2.10;99.30;;;;;;4940165;28;20042;-81
2022/03/01 02:25:07;;;;;;;11.60;6.43;;;2.10;99.30;;;;;;4907861;28;20426;-80
2022/03/01 02:27:33;;;;;;;12.70;7.50;;;2.10;99.40;;;;;;4959643;28;20038;-80
2022/03/01 02:30:00;;;;;;;14.23;7.53;;;2.10;99.60;;;;;;4923186;28;20497;-80
2022/03/01 02:32:26;;;;;;;11.17;6.33;;;2.10;99.60;;;;;;4951429;28;20501;-80
2022/03/01 02:34:53;;;;;;;11.77;6.50;;;2.20;99.60;;;;;;4953411;28;20500;-79
2022/03/01 02:37:19;;;;;;;11.27;6.60;;;2.20;99.70;;;;;;4972194;28;20437;-80
2022/03/01 02:39:46;;;;;;;11.07;6.30;;;2.20;99.90;;;;;;4986868;28;20127;-80
2022/03/01 02:42:14;;;;;;;11.43;6.50;;;2.20;99.70;;;;;;4957121;28;21557;-81
2022/03/01 02:44:40;;;;;;;12.47;6.60;;;2.20;99.70;;;;;;4974326;28;20485;-80
2022/03/01 02:47:07;;;;;;;11.63;6.77;;;2.20;99.70;;;;;;4974545;28;20037;-81
2022/03/01 02:49:34;;;;;;;11.57;6.07;;;2.20;99.80;;;;;;4954888;28;20111;-80
2022/03/01 02:52:00;;;;;;;12.70;5.90;;;2.20;99.90;;;;;;4974246;28;20033;-80
2022/03/01 02:54:27;;;;;;;12.50;7.13;;;2.10;99.90;;;;;;4989392;28;20401;-80
2022/03/01 02:56:59;;;;;;;11.50;6.70;;;2.10;99.90;;;;;;4973373;28;21300;-80
2022/03/01 02:59:49;;;;;;;13.27;7.03;;;2.10;99.90;;;;;;4987048;28;20030;-79
2022/03/01 03:02:22;;;;;;;12.13;6.70;;;2.00;99.90;;;;;;4988367;28;20030;-80
2022/03/01 03:04:53;;;;;;;11.37;6.40;;;2.00;99.90;;;;;;4989104;28;20034;-81
2022/03/01 03:07:26;;;;;;;11.45;5.88;;;2.00;99.90;;;;;;4986877;28;20050;-81
2022/03/01 03:09:57;;;;;;;11.03;6.03;;;2.00;99.90;;;;;;4989192;28;20053;-79
2022/03/01 03:12:25;;;;;;;10.43;5.80;;;2.00;99.90;;;;;;4988613;28;20046;-80
2022/03/01 03:14:52;;;;;;;10.87;6.00;;;1.90;99.90;;;;;;4977087;28;20041;-79
2022/03/01 03:17:20;;;;;;;10.87;6.07;;;1.90;99.90;;;;;;4971853;28;20057;-79
2022/03/01 03:19:48;;;;;;;11.43;5.80;;;1.90;99.90;;;;;;4960677;28;20155;-79
2022/03/01 03:22:14;;;;;;;10.27;6.60;;;2.00;99.90;;;;;;4974702;28;20470;-79
2022/03/01 03:24:42;;;;;;;13.53;7.33;;;2.00;99.90;;;;;;4974790;28;20038;-80
2022/03/01 03:27:10;;;;;;;12.53;7.43;;;2.00;99.90;;;;;;4988519;28;20053;-79
2022/03/01 03:29:45;;;;;;;15.50;7.63;;;2.00;99.90;;;;;;4958846;28;20073;-79
2022/03/01 03:32:13;;;;;;;11.87;6.93;;;2.00;99.90;;;;;;4986052;28;20053;-79
2022/03/01 03:34:39;;;;;;;13.43;7.77;;;2.00;99.90;;;;;;4970795;28;20034;-79
2022/03/01 03:37:06;;;;;;;11.57;6.53;;;2.00;99.90;;;;;;4972185;28;20029;-80
2022/03/01 03:39:33;;;;;;;12.50;6.90;;;2.10;99.90;;;;;;4944722;28;20046;-79
2022/03/01 03:41:59;;;;;;;11.47;6.70;;;2.10;99.90;;;;;;4974333;28;20372;-79
2022/03/01 03:44:25;;;;;;;12.00;6.90;;;2.10;99.90;;;;;;4958295;28;20042;-79
2022/03/01 03:46:52;;;;;;;12.57;6.73;;;2.10;99.90;;;;;;4959783;28;20513;-79
2022/03/01 03:49:19;;;;;;;10.53;6.40;;;2.10;99.90;;;;;;4957218;28;20031;-80
2022/03/01 03:51:46;;;;;;;10.90;6.53;;;2.20;99.90;;;;;;4974446;28;20030;-78
2022/03/01 03:54:12;;;;;;;10.90;6.00;;;2.10;99.90;;;;;;4968308;28;20030;-79
2022/03/01 03:56:39;;;;;;;10.60;6.30;;;2.10;99.90;;;;;;4943587;28;20042;-79
2022/03/01 03:59:07;;;;;;;12.00;6.23;;;2.10;99.90;;;;;;4957504;28;20049;-79
2022/03/01 04:01:35;;;;;;;10.23;5.83;;;2.20;99.90;;;;;;4959011;28;20374;-79
2022/03/01 04:04:01;;;;;;;10.67;6.63;;;2.20;99.90;;;;;;4975673;28;20337;-79
2022/03/01 04:06:28;;;;;;;10.20;6.33;;;2.20;99.90;;;;;;4959196;28;20030;-79
2022/03/01 04:08:54;;;;;;;10.23;6.03;;;2.20;99.90;;;;;;4967798;28;20033;-79
2022/03/01 04:11:21;;;;;;;10.10;6.10;;;2.30;99.90;;;;;;4959863;28;20408;-79
2022/03/01 04:13:47;;;;;;;10.83;6.70;;;2.30;99.90;;;;;;4974055;28;20038;-79
2022/03/01 04:16:15;;;;;;;12.07;5.80;;;2.30;99.90;;;;;;4940285;28;20038;-79
2022/03/01 04:18:41;;;;;;;12.47;6.47;;;2.30;99.90;;;;;;4952288;28;20034;-79
2022/03/01 04:21:08;;;;;;;10.13;5.60;;;2.30;99.90;;;;;;4943545;28;20057;-79
2022/03/01 04:23:34;;;;;;;12.83;7.23;;;2.30;99.90;;;;;;4970183;28;20035;-79
2022/03/01 04:26:01;;;;;;;11.53;7.23;;;2.30;99.90;;;;;;4976355;28;20028;-79
2022/03/01 04:28:28;;;;;;;11.37;6.80;;;2.30;99.90;;;;;;4960055;28;20055;-79
2022/03/01 04:30:54;;;;;;;11.13;6.17;;;2.40;99.90;;;;;;4935647;28;20046;-79
2022/03/01 04:33:21;;;;;;;10.13;5.70;;;2.40;99.90;;;;;;4941646;28;20034;-79
2022/03/01 04:35:50;;;;;;;10.80;6.63;;;2.30;99.90;;;;;;4966428;28;20525;-79
2022/03/01 04:38:17;;;;;;;12.10;6.90;;;2.30;99.90;;;;;;4964805;28;20042;-80
2022/03/01 04:40:47;;;;;;;12.57;6.43;;;2.30;99.90;;;;;;4949785;28;20039;-80
2022/03/01 04:43:22;;;;;;;12.53;6.73;;;2.30;99.90;;;;;;4949565;28;20467;-80
2022/03/01 04:45:52;;;;;;;11.37;6.93;;;2.30;99.90;;;;;;4963974;28;20031;-80
2022/03/01 04:48:23;;;;;;;11.93;6.73;;;2.20;99.90;;;;;;4921627;28;20042;-80
2022/03/01 04:50:58;;;;;;;13.23;7.13;;;2.20;99.90;;;;;;4964692;28;20050;-79
2022/03/01 04:53:26;;;;;;;12.03;6.73;;;2.10;99.90;;;;;;4968466;28;20046;-79
2022/03/01 04:55:54;;;;;;;11.00;6.03;;;2.10;99.90;;;;;;4968626;28;20050;-80
2022/03/01 04:58:22;;;;;;;11.97;7.10;;;2.10;99.90;;;;;;4952554;28;20058;-80
2022/03/01 05:00:54;;;;;;;13.93;7.23;;;2.10;99.90;;;;;;4966875;28;20038;-79
2022/03/01 05:03:23;;;;;;;9.93;6.40;;;2.10;99.90;;;;;;4937475;28;20023;-80
2022/03/01 05:05:51;;;;;;;13.80;7.80;;;2.20;99.90;;;;;;4967825;28;20050;-80
2022/03/01 05:08:18;;;;;;;12.60;6.80;;;2.20;99.90;;;;;;4951579;28;20034;-80
2022/03/01 05:10:47;;;;;;;14.10;8.87;;;2.30;99.90;;;;;;4935234;28;20411;-80
2022/03/01 05:13:16;;;;;;;11.37;5.67;;;2.30;99.90;;;;;;4937854;28;20039;-80
2022/03/01 05:15:44;;;;;;;12.80;6.97;;;2.30;99.90;;;;;;4966817;28;20122;-80
2022/03/01 05:18:12;;;;;;;15.70;8.67;;;2.40;99.90;;;;;;4953998;28;20030;-79
2022/03/01 05:20:39;;;;;;;16.27;9.43;;;2.40;99.90;;;;;;4970018;28;20054;-79
2022/03/01 05:23:12;;;;;;;13.30;8.00;;;2.40;99.90;;;;;;4967631;28;20487;-78
2022/03/01 05:25:40;;;;;;;12.87;8.10;;;2.40;99.90;;;;;;4947194;28;20035;-82
2022/03/01 05:28:09;;;;;;;14.83;8.67;;;2.40;99.90;;;;;;4961783;28;20050;-80
2022/03/01 05:30:35;;;;;;;13.30;7.73;;;2.40;99.90;;;;;;4987890;28;20037;-80
2022/03/01 05:33:02;;;;;;;11.83;7.23;;;2.50;99.90;;;;;;4954524;28;20034;-80
2022/03/01 05:35:32;;;;;;;14.30;7.27;;;2.50;99.90;;;;;;4970591;28;20042;-79
2022/03/01 05:38:02;;;;;;;13.23;7.07;;;2.50;99.90;;;;;;4942794;28;20052;-79
2022/03/01 05:40:31;;;;;;;34.13;15.07;;;2.40;99.90;;;;;;4953064;28;20486;-79
2022/03/01 05:42:59;;;;;;;16.50;9.73;;;2.50;99.90;;;;;;4954102;28;20019;-80
2022/03/01 05:45:26;;;;;;;15.70;8.47;;;2.40;99.90;;;;;;4970214;28;20035;-80
2022/03/01 05:47:54;;;;;;;16.77;8.47;;;2.40;99.90;;;;;;4984336;28;20378;-79
2022/03/01 05:50:21;;;;;;;13.57;7.63;;;2.40;99.90;;;;;;4985887;28;20478;-78
2022/03/01 05:52:49;;;;;;;13.77;8.20;;;2.30;99.90;;;;;;4987933;28;20030;-79
2022/03/01 05:55:16;;;;;;;16.10;8.40;;;2.20;99.90;;;;;;4972470;28;20038;-79
2022/03/01 05:57:42;;;;;;;14.57;7.57;;;2.20;99.90;;;;;;4953944;28;20125;-80
2022/03/01 06:00:12;;;;;;;12.03;7.43;;;2.10;99.90;;;;;;4940776;28;20042;-80
2022/03/01 06:02:39;;;;;;;13.40;7.90;;;2.10;99.90;;;;;;4955792;28;20442;-79
2022/03/01 06:05:06;;;;;;;10.47;6.77;;;2.00;99.90;;;;;;4968056;28;20395;-79
2022/03/01 06:07:33;;;;;;;16.10;8.17;;;2.00;99.90;;;;;;4975564;28;21608;-79
2022/03/01 06:09:59;;;;;;;14.67;8.77;;;2.10;99.90;;;;;;4955114;28;20038;-79
2022/03/01 06:12:26;;;;;;;16.67;9.37;;;2.10;99.90;;;;;;4954233;28;20413;-79
2022/03/01 06:14:52;;;;;;;15.73;7.87;;;2.10;99.90;;;;;;4971329;28;20041;-80
2022/03/01 06:17:19;;;;;;;10.60;6.03;;;2.20;99.90;;;;;;4936358;28;20046;-80
2022/03/01 06:19:45;;;;;;;13.20;7.70;;;2.20;99.90;;;;;;4960479;28;20053;-80
2022/03/01 06:22:13;;;;;;;12.70;7.10;;;2.20;99.90;;;;;;4945929;28;20065;-80
2022/03/01 06:24:41;;;;;;;14.77;8.13;;;2.20;99.90;;;;;;4975956;28;20053;-80
2022/03/01 06:27:09;;;;;;;14.70;7.20;;;2.30;99.90;;;;;;4979070;28;20105;-80
2022/03/01 06:29:36;;;;;;;14.40;8.33;;;2.30;99.90;;;;;;4973525;28;20061;-80
2022/03/01 06:32:07;;;;;;;13.73;8.30;;;2.30;99.90;;;;;;4961672;28;20034;-81
2022/03/01 06:34:36;;;;;;;;;;;2.30;99.90;;;;;;4969158;28;20042;-80
2022/03/01 06:37:02;;;;;;;15.93;9.73;;;2.30;99.90;;;;;;4969479;28;19910;-80
2022/03/01 06:39:32;;;;;;;15.63;8.53;;;2.30;99.90;;;;;;4957925;28;20038;-80
2022/03/01 06:42:05;;;;;;;15.20;9.50;;;2.30;99.90;;;;;;4971684;28;20037;-80
2022/03/01 06:44:35;;;;;;;13.53;8.57;;;2.30;99.90;;;;;;4928912;28;20042;-80
2022/03/01 06:47:05;;;;;;;13.87;8.17;;;2.30;99.90;;;;;;4990194;28;20378;-80
2022/03/01 06:49:34;;;;;;;12.63;8.03;;;2.30;99.90;;;;;;4983857;28;20050;-80
2022/03/01 06:52:14;;;;;;;12.47;7.53;;;2.20;99.90;;;;;;4992180;28;20065;-80
2022/03/01 06:54:50;;;;;;;15.23;8.50;;;2.20;99.90;;;;;;4972093;28;20474;-80
2022/03/01 06:57:23;;;;;;;15.03;8.00;;;2.30;99.90;;;;;;4988430;28;20041;-80
2022/03/01 07:00:21;;;;;;;15.52;8.70;;;2.30;99.90;;;;;;4988354;28;20061;-80
2022/03/01 07:03:16;;;;;;;14.07;8.20;;;2.20;99.90;;;;;;4958019;28;20462;-80
2022/03/01 07:05:55;;;;;;;;;;;2.20;99.90;;;;;;4984327;28;20485;-80
2022/03/01 07:08:28;;;;;;;13.33;7.83;;;2.30;99.90;;;;;;4985954;28;19909;-80
2022/03/01 07:10:58;;;;;;;12.60;7.33;;;2.30;99.90;;;;;;4986014;28;20057;-79
2022/03/01 07:13:27;;;;;;;13.33;7.83;;;2.30;99.90;;;;;;4972986;28;20061;-80
2022/03/01 07:16:06;;;;;;;14.73;7.60;;;2.40;99.90;;;;;;4989817;28;20466;-80
2022/03/01 07:19:07;;;;;;;14.20;8.67;;;2.50;99.90;;;;;;4970792;28;20050;-80
2022/03/01 07:21:35;;;;;;;13.90;8.27;;;2.50;99.90;;;;;;4990563;28;20490;-80
2022/03/01 07:24:04;;;;;;;15.37;10.13;;;2.60;99.90;;;;;;4988554;28;20462;-80
2022/03/01 07:26:56;;;;;;;15.37;10.97;;;2.70;99.90;;;;;;4969486;28;20050;-79
2022/03/01 07:29:31;;;;;;;17.73;9.93;;;2.80;99.90;;;;;;4974977;28;20605;-80
2022/03/01 07:31:58;;;;;;;19.50;10.40;;;2.90;99.90;;;;;;4987775;28;20496;-80
2022/03/01 07:34:25;;;;;;;17.50;10.17;;;2.90;99.90;;;;;;4971169;28;20041;-80
2022/03/01 07:36:52;;;;;;;15.83;11.10;;;3.00;99.90;;;;;;4961911;28;20030;-80
2022/03/01 07:39:19;;;;;;;15.73;9.97;;;3.10;99.90;;;;;;4957124;28;20487;-80
2022/03/01 07:41:45;;;;;;;19.40;11.70;;;3.20;99.90;;;;;;4960374;28;20049;-80
2022/03/01 07:44:12;;;;;;;17.07;10.90;;;3.30;99.90;;;;;;4972663;28;20489;-80
2022/03/01 07:46:39;;;;;;;15.83;9.83;;;3.40;99.90;;;;;;4957639;28;20042;-80
2022/03/01 07:49:05;;;;;;;18.33;10.10;;;3.50;99.90;;;;;;4972869;28;20045;-80
2022/03/01 07:51:32;;;;;;;17.90;10.30;;;3.60;99.90;;;;;;4960589;28;20038;-80
2022/03/01 07:53:59;;;;;;;16.47;9.90;;;3.70;99.90;;;;;;4962110;28;20050;-80
2022/03/01 07:56:25;;;;;;;14.97;9.03;;;3.80;99.90;;;;;;4976137;28;20049;-80
2022/03/01 07:58:53;;;;;;;16.03;10.93;;;3.90;99.90;;;;;;4955503;28;20034;-77
2022/03/01 08:01:20;;;;;;;17.47;10.90;;;3.90;99.90;;;;;;4972779;28;20030;-78
2022/03/01 08:03:48;;;;;;;18.73;9.83;;;4.00;99.90;;;;;;4959488;28;20022;-78
2022/03/01 08:06:15;;;;;;;17.20;10.60;;;4.00;99.90;;;;;;4961729;28;20027;-79
2022/03/01 08:08:41;;;;;;;17.23;10.63;;;4.10;99.90;;;;;;4987217;28;20030;-78
2022/03/01 08:11:08;;;;;;;16.30;8.97;;;4.10;99.90;;;;;;4972098;28;20033;-78
2022/03/01 08:13:35;;;;;;;13.90;9.33;;;4.10;99.90;;;;;;4945325;28;20110;-79
2022/03/01 08:16:03;;;;;;;14.00;9.53;;;4.20;99.90;;;;;;4973788;28;20454;-78
2022/03/01 08:18:30;;;;;;;19.13;11.33;;;4.20;99.90;;;;;;4953762;28;20034;-77
2022/03/01 08:20:57;;;;;;;15.67;10.60;;;4.20;99.90;;;;;;4944918;28;20035;-78
2022/03/01 08:23:25;;;;;;;15.27;11.13;;;4.20;99.90;;;;;;4972899;28;20073;-77
2022/03/01 08:25:52;;;;;;;16.50;11.73;;;4.20;99.90;;;;;;4956559;28;20347;-77
2022/03/01 08:28:19;;;;;;;18.50;11.30;;;4.20;99.90;;;;;;4969952;28;20061;-77
2022/03/01 08:30:49;;;;;;;17.40;11.27;;;4.20;99.90;;;;;;4973639;28;20029;-77
2022/03/01 08:33:24;;;;;;;16.17;11.53;;;4.30;99.90;;;;;;4954386;28;20454;-77
2022/03/01 08:35:57;;;;;;;16.37;11.90;;;4.30;99.90;;;;;;4972745;28;20050;-77
2022/03/01 08:38:36;;;;;;;17.07;11.50;;;4.40;99.90;;;;;;4970637;28;20038;-77
2022/03/01 08:41:10;;;;;;;;;;;4.50;99.90;;;;;;4972646;28;20034;-77
2022/03/01 08:43:43;;;;;;;20.20;11.27;;;4.60;99.90;;;;;;4972381;28;20253;-77
2022/03/01 08:46:15;;;;;;;17.57;11.33;;;4.70;99.90;;;;;;4972468;28;20053;-77
2022/03/01 08:48:44;;;;;;;16.33;10.27;;;4.90;99.90;;;;;;4969215;28;20050;-79
2022/03/01 08:51:17;;;;;;;17.70;10.13;;;5.00;99.90;;;;;;4990836;28;20034;-79
2022/03/01 08:54:12;;;;;;;14.57;9.77;;;5.10;99.90;;;;;;4960090;28;20026;-79
2022/03/01 08:56:39;;;;;;;16.83;10.03;;;5.30;99.90;;;;;;4990022;28;20052;-79
2022/03/01 08:59:25;;;;;;;16.50;8.83;;;5.40;99.90;;;;;;4971508;28;20042;-79
2022/03/01 09:01:58;;;;;;;13.03;9.23;;;5.50;99.90;;;;;;4990746;28;20049;-79
2022/03/01 09:04:44;;;;;;;17.03;10.70;;;5.60;99.90;;;;;;4960502;28;20390;-79
2022/03/01 09:07:21;;;;;;;14.80;9.43;;;5.70;99.90;;;;;;4970313;28;20038;-80
2022/03/01 09:09:48;;;;;;;16.60;10.07;;;5.80;99.90;;;;;;4971771;28;20034;-78
2022/03/01 09:12:14;;;;;;;19.13;10.53;;;5.80;99.90;;;;;;4972908;28;20360;-78
2022/03/01 09:14:43;;;;;;;15.52;9.75;;;6.00;99.90;;;;;;4955728;28;20061;-78
2022/03/01 09:17:09;;;;;;;14.83;9.20;;;6.00;99.90;;;;;;4970501;28;20376;-78
2022/03/01 09:19:39;;;;;;;14.48;9.80;;;6.20;99.90;;;;;;4971505;28;20370;-77
2022/03/01 09:22:05;;;;;;;14.17;9.27;;;6.30;99.90;;;;;;4928857;28;20046;-78
2022/03/01 09:24:35;;;;;;;13.40;8.73;;;6.40;99.90;;;;;;4971832;28;20030;-77
2022/03/01 09:27:02;;;;;;;15.87;9.43;;;6.60;99.90;;;;;;4991421;28;20025;-77
2022/03/01 09:29:34;;;;;;;12.60;8.30;;;6.70;99.90;;;;;;4968997;28;20045;-77
2022/03/01 09:32:04;;;;;;;12.68;8.20;;;6.80;99.90;;;;;;4990210;28;20360;-78
2022/03/01 09:34:31;;;;;;;15.40;9.70;;;6.90;99.90;;;;;;4988678;28;20021;-77
2022/03/01 09:36:57;;;;;;;15.98;9.38;;;7.00;99.90;;;;;;4956197;28;20037;-78
2022/03/01 09:39:24;;;;;;;14.32;9.45;;;7.10;99.90;;;;;;4955737;28;20050;-77
2022/03/01 09:41:51;;;;;;;12.88;8.90;;;7.20;99.90;;;;;;4942225;28;20046;-77
2022/03/01 09:44:18;;;;;;;12.50;9.10;;;7.30;99.80;;;;;;4954145;28;20033;-77
2022/03/01 09:46:44;;;;;;;15.35;8.88;;;7.40;99.40;;;;;;4958223;28;20037;-77
2022/03/01 09:49:11;;;;;;;11.90;8.05;;;7.50;99.20;;;;;;4936988;28;20041;-77
2022/03/01 09:51:41;;;;;;;17.48;9.50;;;7.50;99.00;;;;;;4972700;28;21139;-77
2022/03/01 09:54:08;;;;;;;12.13;8.52;;;7.60;98.90;;;;;;4969791;28;20038;-77
2022/03/01 09:56:36;;;;;;;15.07;9.63;;;7.70;98.60;;;;;;4957674;28;20489;-77
2022/03/01 09:59:03;;;;;;;12.70;8.65;;;7.70;98.20;;;;;;4952012;28;20390;-77
2022/03/01 10:01:30;;;;;;;16.17;9.43;;;7.70;98.00;;;;;;4945291;28;20018;-78
2022/03/01 10:04:07;;;;;;;14.00;9.20;;;7.80;97.60;;;;;;4955263;28;20359;-77
2022/03/01 10:06:40;;;;;;;13.48;8.95;;;7.80;97.20;;;;;;4958360;28;20041;-78
2022/03/01 10:09:26;;;;;;;13.95;8.93;;;7.90;96.80;;;;;;4967613;28;20041;-78
2022/03/01 10:11:53;;;;;;;13.57;8.70;;;8.00;97.20;;;;;;4955616;28;20038;-77
2022/03/01 10:14:31;;;;;;;13.82;9.32;;;8.10;96.80;;;;;;4954852;28;20022;-78
2022/03/01 10:16:57;;;;;;;14.50;9.43;;;8.30;96.40;;;;;;4972113;28;20035;-77
2022/03/01 10:19:25;;;;;;;13.93;7.95;;;8.40;96.50;;;;;;4952772;28;20042;-77
2022/03/01 10:22:03;;;;;;;12.32;8.98;;;8.50;96.30;;;;;;4955879;28;20038;-77
2022/03/01 10:24:30;;;;;;;13.02;8.48;;;8.70;96.30;;;;;;4955588;28;20030;-77
2022/03/01 10:27:01;;;;;;;12.68;7.57;;;9.10;96.40;;;;;;4961207;28;20025;-77
2022/03/01 10:29:29;;;;;;;14.73;8.73;;;9.60;96.20;;;;;;4954782;28;20049;-78
2022/03/01 10:31:59;;;;;;;12.80;7.43;;;10.00;95.70;;;;;;4972184;28;20033;-78
2022/03/01 10:34:30;;;;;;;15.60;8.18;;;10.50;95.60;;;;;;4966828;28;20035;-78
2022/03/01 10:36:59;;;;;;;11.10;8.52;;;10.90;94.70;;;;;;4951432;28;20027;-77
2022/03/01 10:39:30;;;;;;;12.90;8.27;;;11.10;93.20;;;;;;4983585;28;20034;-78
2022/03/01 10:41:57;;;;;;;15.80;9.23;;;11.30;92.50;;;;;;4969944;28;20489;-78
2022/03/01 10:44:27;;;;;;;11.40;7.93;;;11.40;91.10;;;;;;4971974;28;20041;-78
2022/03/01 10:46:59;;;;;;;10.55;7.50;;;11.40;90.60;;;;;;4984851;28;20030;-78
2022/03/01 10:49:36;;;;;;;12.68;8.30;;;11.50;90.20;;;;;;4985619;28;20030;-78
2022/03/01 10:52:08;;;;;;;11.52;8.18;;;11.60;90.00;;;;;;4984814;28;20030;-78
2022/03/01 10:54:39;;;;;;;12.00;7.35;;;11.70;89.80;;;;;;4973249;28;20038;-78
2022/03/01 10:57:12;;;;;;;11.00;8.05;;;11.70;89.30;;;;;;4987752;28;20018;-78
2022/03/01 10:59:42;;;;;;;13.95;9.55;;;11.90;88.70;;;;;;4969120;28;20033;-78
2022/03/01 11:02:09;;;;;;;11.05;8.40;;;12.10;86.50;;;;;;4959633;28;20019;-78
2022/03/01 11:04:48;;;;;;;10.10;7.97;;;12.20;85.40;;;;;;4941011;28;20038;-79
2022/03/01 11:07:16;;;;;;;15.07;9.18;;;12.20;83.80;;;;;;4971803;28;20025;-78
2022/03/01 11:09:47;;;;;;;12.98;8.95;;;12.10;81.10;;;;;;4974377;28;20041;-78
2022/03/01 11:12:15;;;;;;;10.80;8.82;;;12.10;81.00;;;;;;4962717;28;20041;-78
2022/03/01 11:15:14;;;;;;;12.18;8.93;;;12.00;81.00;;;;;;4945360;28;20418;-78
2022/03/01 11:17:59;;;;;;;11.18;8.15;;;12.10;81.30;;;;;;4990329;28;20378;-78
2022/03/01 11:20:53;;;;;;;13.25;9.27;;;12.20;80.40;;;;;;4990520;28;20033;-78
2022/03/01 11:23:26;;;;;;;13.25;8.27;;;12.10;78.90;;;;;;4972864;28;20021;-78
2022/03/01 11:25:53;;;;;;;10.50;7.90;;;12.10;79.20;;;;;;4988820;28;20446;-78
2022/03/01 11:28:39;;;;;;;13.75;9.18;;;12.20;79.40;;;;;;4971586;28;20954;-78
2022/03/01 11:31:24;;;;;;;14.20;8.80;;;12.30;79.20;;;;;;4978610;28;20022;-78
2022/03/01 11:34:02;;;;;;;12.70;8.55;;;12.30;78.30;;;;;;4974080;28;20022;-78
2022/03/01 11:36:31;;;;;;;13.93;9.88;;;12.40;78.10;;;;;;4976744;28;20050;-78
2022/03/01 11:39:16;;;;;;;16.48;9.45;;;12.40;77.40;;;;;;4939814;28;20030;-77
2022/03/01 11:41:51;;;;;;;12.77;8.20;;;12.40;76.90;;;;;;4954016;28;20027;-78
2022/03/01 11:44:20;;;;;;;15.10;9.18;;;12.40;76.90;;;;;;4955099;28;20030;-78
2022/03/01 11:46:48;;;;;;;11.73;9.13;;;12.40;76.80;;;;;;4957250;28;20061;-78
2022/03/01 11:49:17;;;;;;;12.90;9.63;;;12.40;77.30;;;;;;4939415;28;20377;-79
2022/03/01 11:51:50;;;;;;;15.45;11.18;;;12.40;76.80;;;;;;4966660;28;20026;-78
2022/03/01 11:54:23;;;;;;;14.48;9.68;;;12.30;76.70;;;;;;4969958;28;20418;-78
2022/03/01 11:56:53;;;;;;;13.95;9.55;;;12.30;76.80;;;;;;4975995;28;20520;-78
2022/03/01 11:59:21;;;;;;;11.57;9.25;;;12.20;76.60;;;;;;4942079;28;20041;-78
2022/03/01 12:01:48;;;;;;;11.07;9.20;;;12.20;77.00;;;;;;4956786;28;20045;-78
2022/03/01 12:04:26;;;;;;;14.75;9.68;;;12.20;77.10;;;;;;4955842;28;20477;-78
2022/03/01 12:06:56;;;;;;;13.45;9.45;;;12.20;76.80;;;;;;4947265;28;20030;-78
2022/03/01 12:09:26;;;;;;;12.50;8.68;;;12.20;76.60;;;;;;4957292;28;20034;-78
2022/03/01 12:12:08;;;;;;;13.10;9.43;;;12.10;76.50;;;;;;4971334;28;20046;-78
2022/03/01 12:14:36;;;;;;;10.93;8.95;;;12.10;76.70;;;;;;4987437;28;20030;-78
2022/03/01 12:17:04;;;;;;;12.80;8.75;;;12.20;76.60;;;;;;4955590;28;20030;-78
2022/03/01 12:19:33;;;;;;;11.35;8.68;;;12.30;76.90;;;;;;4957654;28;20045;-78
2022/03/01 12:22:02;;;;;;;13.20;10.50;;;12.60;77.10;;;;;;4958696;28;20034;-78
2022/03/01 12:24:30;;;;;;;14.43;10.13;;;12.80;75.00;;;;;;4968681;28;20026;-78
2022/03/01 12:27:00;;;;;;;16.60;9.73;;;12.80;73.70;;;;;;4970753;28;20367;-78
2022/03/01 12:29:30;;;;;;;15.10;10.18;;;12.70;73.50;;;;;;4962631;28;20387;-77
2022/03/01 12:32:13;;;;;;;11.25;8.38;;;12.70;74.00;;;;;;4955591;28;20509;-78
2022/03/01 12:34:42;;;;;;;13.80;10.18;;;12.80;74.30;;;;;;4957019;28;20038;-77
2022/03/01 12:37:18;;;;;;;12.25;9.20;;;13.00;74.10;;;;;;4939394;28;20030;-78
2022/03/01 12:39:45;;;;;;;12.70;9.02;;;13.10;74.40;;;;;;4971098;28;20030;-78
2022/03/01 12:42:35;;;;;;;13.55;9.25;;;13.20;74.00;;;;;;4943746;28;20856;-78
2022/03/01 12:45:04;;;;;;;16.17;10.55;;;13.40;74.00;;;;;;4934047;28;20509;-78
2022/03/01 12:47:30;;;;;;;14.52;9.43;;;13.50;73.00;;;;;;4953069;28;20037;-77
2022/03/01 12:50:00;;;;;;;13.15;8.73;;;13.40;72.50;;;;;;4951445;28;20390;-77
2022/03/01 12:52:27;;;;;;;14.73;11.85;;;13.40;72.40;;;;;;4971131;28;20034;-78
2022/03/01 12:54:54;;;;;;;13.30;9.45;;;13.30;71.80;;;;;;4941658;28;20038;-78
2022/03/01 12:57:20;;;;;;;13.88;9.27;;;13.20;72.50;;;;;;4958352;28;20034;-77